Detalii statie RANDUNICA PREST ANDRID [00001984]

Toti senzorii

Date Temperatura solului [C]Precipitatii [mm]Voltaj baterie [mV]Leaf Wetness [Min]HC Air temperature [C]HC Relative humidity [%]Punctul de roua [C]
medieminmaxsumaultimatimpmedieminmaxmediemediemin
2020-01-21 22:00:00 1.4 1.3 1.5 0 6864 -0.99 -1.05 -0.88 0 0 0
2020-01-21 23:00:00 1.4 1.4 1.6 0 6844 -0.95 -1.01 -0.91 0 0 0
2020-01-22 00:00:00 1.3 1.3 1.6 0 6844 -0.86 -0.91 -0.8 0 0 0
2020-01-22 01:00:00 1.4 1.3 1.6 0 6834 -0.71 -0.75 -0.66 0 0 0
2020-01-22 02:00:00 1.3 1.2 1.4 0 6834 -0.6 -0.68 -0.58 0 0 0
2020-01-22 03:00:00 1.3 1.3 1.4 0 6826 -0.67 -0.77 -0.6 0 0 0
2020-01-22 04:00:00 1.3 1.2 1.4 0 6826 -0.93 -0.98 -0.79 0 0 0
2020-01-22 05:00:00 1.2 1.1 1.3 0 6816 -0.86 -0.98 -0.7 0 0 0
2020-01-22 06:00:00 1.2 1.2 1.3 0 6816 -0.73 -0.79 -0.69 0 0 0
2020-01-22 07:00:00 1.2 1.2 1.3 0 6806 -0.75 -0.79 -0.71 0 0 0
2020-01-22 08:00:00 1.2 1.1 1.3 0 6806 -0.71 -0.74 -0.69 0 0 0
2020-01-22 09:00:00 1.2 1.1 1.3 0 6816 -0.76 -0.81 -0.72 0 0 0
2020-01-22 10:00:00 1.1 1 1.3 0 6806 -0.73 -0.76 -0.7 0 0 0
2020-01-22 11:00:00 1.1 1.1 1.3 0 6844 -0.57 -0.69 -0.43 0 0 0
2020-01-22 12:00:00 1.1 1 1.3 0 6854 -0.36 -0.43 -0.29 0 0 0
2020-01-22 13:00:00 1.1 1 1.3 0 6884 -0.26 -0.33 -0.16 0 0 0
2020-01-22 14:00:00 1.2 1.1 1.3 0 6874 -0.31 -0.51 -0.24 0 0 0
2020-01-22 15:00:00 1.2 1.2 1.3 0 6874 -0.44 -0.48 -0.39 0 0 0
2020-01-22 16:00:00 1.2 1.2 1.4 0 6826 -0.46 -0.52 -0.43 0 0 0
2020-01-22 17:00:00 1.3 1.3 1.4 0 6816 -0.54 -0.59 -0.49 0 0 0
2020-01-22 18:00:00 1.3 1.2 1.4 0 6806 -0.63 -0.71 -0.55 0 0 0
2020-01-22 19:00:00 1.2 1.2 1.4 0 6806 -0.71 -0.77 -0.67 0 0 0
2020-01-22 20:00:00 1.2 1.2 1.3 0 6786 -0.69 -0.76 -0.64 0 0 0
2020-01-22 21:00:00 1.2 1.2 1.3 0 6806 -0.65 -0.73 -0.6 0 0 0
2020-01-22 22:00:00 1.1 1.1 1.3 0 6796 -0.71 -0.73 -0.69 0 0 0
2020-01-22 23:00:00 1.2 1.1 1.3 0 6786 -0.77 -0.84 -0.7 0 0 0
2020-01-23 00:00:00 1.1 1 1.3 0 6796 -0.8 -0.85 -0.76 0 0 0
2020-01-23 01:00:00 1.1 0.9 1.3 0 6786 -0.84 -0.86 -0.81 0 0 0
2020-01-23 02:00:00 1.1 1 1.2 0 6796 -0.99 -1.17 -0.85 0 0 0
2020-01-23 03:00:00 1.1 0.9 1.2 0 6796 -1.13 -1.5 -0.88 0 0 0
2020-01-23 04:00:00 1.1 1.1 1.2 0 6796 -1.62 -1.69 -1.55 0 0 0
2020-01-23 05:00:00 1 1 1.2 0 6776 -1.45 -1.52 -1.42 0 0 0
2020-01-23 06:00:00 1 1 1.1 0 6776 -1.35 -1.42 -1.27 0 0 0
2020-01-23 07:00:00 0.9 0.8 1.1 0 6796 -1.26 -1.29 -1.22 0 0 0
2020-01-23 08:00:00 1 0.8 1.1 0 6776 -1.27 -1.59 -1.13 0 0 0
2020-01-23 09:00:00 0.9 0.8 1.1 0 6796 -2.05 -2.41 -1.68 0 0 0
2020-01-23 10:00:00 1 1 1.1 0 6884 -1.91 -2.5 -1.2 0 0 0
2020-01-23 11:00:00 0.9 0.8 1.1 0 7118 -0.64 -1.14 -0.08 0 0 0
2020-01-23 12:00:00 1 0.9 1.1 0 7274 0.76 0.27 1.35 0 0 0
2020-01-23 13:00:00 1 1 1.1 0 7284 2.11 1.48 2.73 0 0 0
2020-01-23 14:00:00 1.1 1 1.3 0 7274 3.19 2.62 3.71 0 0 0
2020-01-23 15:00:00 1.3 1.2 1.5 0 7274 3.6 3.42 3.71 0 0 0
2020-01-23 16:00:00 1.6 1.6 1.8 0 7274 3.24 2.67 3.81 0 0 0
2020-01-23 17:00:00 1.8 1.8 2 0 7138 2.22 1.34 2.9 0 0 0
2020-01-23 18:00:00 1.9 1.9 2 0 7040 0.68 0.2 1.22 0 0 0
2020-01-23 19:00:00 1.8 1.7 2 0 7020 -0.16 -0.37 0.07 0 0 0
2020-01-23 20:00:00 1.7 1.7 1.9 0 6982 -0.51 -0.82 -0.3 0 0 0
2020-01-23 21:00:00 1.6 1.5 1.7 0 6982 -1.09 -1.7 -0.64 0 0 0